createdAt,value
2023-02-17T00:01:00.272Z,12.82
2023-02-17T00:03:27.995Z,14.50
2023-02-17T00:05:54.931Z,13.57
2023-02-17T00:08:21.946Z,13.63
2023-02-17T00:10:58.790Z,11.77
2023-02-17T00:13:26.437Z,12.57
2023-02-17T00:15:53.566Z,13.02
2023-02-17T00:18:20.609Z,11.75
2023-02-17T00:20:47.495Z,12.00
2023-02-17T00:23:14.407Z,10.77
2023-02-17T00:25:41.372Z,11.35
2023-02-17T00:28:08.317Z,11.10
2023-02-17T00:30:35.296Z,11.90
2023-02-17T00:33:02.169Z,10.38
2023-02-17T00:35:29.038Z,10.55
2023-02-17T00:37:55.916Z,10.52
2023-02-17T00:40:22.963Z,11.57
2023-02-17T00:42:49.938Z,11.80
2023-02-17T00:45:18.250Z,12.52
2023-02-17T00:47:45.134Z,11.90
2023-02-17T00:50:11.997Z,11.25
2023-02-17T00:52:38.888Z,11.77
2023-02-17T00:55:07.720Z,12.35
2023-02-17T00:57:36.314Z,10.90
2023-02-17T01:00:05.153Z,12.40
2023-02-17T01:02:33.910Z,11.18
2023-02-17T01:05:00.798Z,11.73
2023-02-17T01:07:27.768Z,11.73
2023-02-17T01:09:54.689Z,9.88
2023-02-17T01:12:22.164Z,10.80
2023-02-17T01:14:49.721Z,10.55
2023-02-17T01:17:16.606Z,10.18
2023-02-17T01:19:43.526Z,9.05
2023-02-17T01:22:10.489Z,9.57
2023-02-17T01:24:39.406Z,8.98
2023-02-17T01:27:06.451Z,9.63
2023-02-17T01:29:33.395Z,10.27
2023-02-17T01:32:00.410Z,9.25
2023-02-17T01:34:28.002Z,9.63
2023-02-17T01:36:54.915Z,9.13
2023-02-17T01:39:21.862Z,9.10
2023-02-17T01:41:48.767Z,9.68
2023-02-17T01:44:22.019Z,9.63
2023-02-17T01:46:54.566Z,9.25
2023-02-17T01:49:30.692Z,8.57
2023-02-17T01:52:11.336Z,10.23
2023-02-17T01:54:46.463Z,9.43
2023-02-17T01:57:17.272Z,7.95
2023-02-17T01:59:45.501Z,9.27
2023-02-17T02:02:13.006Z,8.63
2023-02-17T02:04:45.034Z,8.82
2023-02-17T02:07:18.892Z,9.02
2023-02-17T02:09:56.201Z,8.02
2023-02-17T02:12:31.900Z,7.88
2023-02-17T02:15:03.229Z,7.73
2023-02-17T02:17:37.092Z,8.10
2023-02-17T02:20:23.001Z,7.47
2023-02-17T02:23:14.553Z,8.60
2023-02-17T02:26:08.823Z,8.90
2023-02-17T02:28:58.906Z,8.48
2023-02-17T02:31:45.203Z,8.50
2023-02-17T02:34:29.781Z,9.77
2023-02-17T02:37:07.375Z,9.82
2023-02-17T02:39:39.623Z,9.77
2023-02-17T02:42:11.300Z,9.05
2023-02-17T02:44:38.319Z,9.32
2023-02-17T02:47:07.820Z,9.85
2023-02-17T02:49:36.830Z,8.75
2023-02-17T02:52:10.296Z,8.68
2023-02-17T02:54:52.850Z,8.88
2023-02-17T02:58:03.757Z,8.35
2023-02-17T03:00:45.124Z,7.68
2023-02-17T03:03:41.285Z,7.57
2023-02-17T03:06:43.130Z,6.07
2023-02-17T03:09:30.993Z,8.27
2023-02-17T03:11:58.911Z,7.95
2023-02-17T03:14:27.532Z,8.32
2023-02-17T03:16:55.519Z,8.10
2023-02-17T03:19:26.085Z,8.77
2023-02-17T03:22:07.664Z,8.07
2023-02-17T03:24:36.043Z,8.05
2023-02-17T03:27:03.333Z,8.50
2023-02-17T03:29:30.320Z,8.40
2023-02-17T03:31:57.452Z,9.10
2023-02-17T03:34:24.573Z,9.23
2023-02-17T03:36:51.598Z,8.25
2023-02-17T03:39:18.460Z,7.28
2023-02-17T03:41:46.052Z,7.57
2023-02-17T03:44:12.933Z,7.07
2023-02-17T03:46:41.137Z,6.28
2023-02-17T03:49:08.117Z,6.47
2023-02-17T03:51:35.154Z,6.88
2023-02-17T03:54:02.162Z,6.65
2023-02-17T03:56:29.290Z,6.20
2023-02-17T03:58:56.175Z,6.43
2023-02-17T04:01:23.901Z,5.97
2023-02-17T04:03:50.962Z,6.57
2023-02-17T04:06:18.315Z,7.20
2023-02-17T04:08:45.245Z,6.63
2023-02-17T04:11:12.181Z,6.45
2023-02-17T04:13:40.145Z,5.63
2023-02-17T04:16:09.401Z,6.45
2023-02-17T04:18:37.372Z,5.82
2023-02-17T04:21:05.029Z,6.30
2023-02-17T04:23:32.035Z,6.35
2023-02-17T04:25:58.945Z,5.50
2023-02-17T04:28:26.474Z,5.20
2023-02-17T04:30:53.611Z,5.57
2023-02-17T04:33:20.650Z,5.72
2023-02-17T04:35:47.795Z,5.43
2023-02-17T04:38:14.886Z,4.97
2023-02-17T04:40:42.881Z,4.90
2023-02-17T04:43:10.041Z,4.68
2023-02-17T04:45:38.008Z,4.95
2023-02-17T04:48:04.973Z,4.82
2023-02-17T04:50:31.820Z,4.47
2023-02-17T04:52:58.749Z,4.70
2023-02-17T04:55:25.690Z,5.32
2023-02-17T04:57:52.628Z,4.60
2023-02-17T05:00:19.948Z,4.60
2023-02-17T05:02:46.845Z,4.70
2023-02-17T05:05:18.875Z,5.40
2023-02-17T05:07:46.645Z,4.78
2023-02-17T05:10:15.975Z,4.43
2023-02-17T05:12:43.024Z,5.35
2023-02-17T05:15:10.642Z,4.45
2023-02-17T05:17:37.568Z,4.88
2023-02-17T05:20:06.198Z,4.78
2023-02-17T05:22:33.491Z,5.47
2023-02-17T05:25:00.356Z,5.72
2023-02-17T05:27:27.226Z,6.38
2023-02-17T05:29:54.300Z,6.03
2023-02-17T05:32:22.876Z,5.28
2023-02-17T05:34:49.916Z,6.05
2023-02-17T05:37:16.858Z,6.72
2023-02-17T05:39:43.875Z,6.88
2023-02-17T05:42:10.743Z,7.18
2023-02-17T05:44:37.634Z,7.45
2023-02-17T05:47:04.944Z,6.20
2023-02-17T05:49:31.898Z,6.85
2023-02-17T05:51:58.830Z,6.57
2023-02-17T05:54:25.773Z,5.97
2023-02-17T05:56:52.692Z,6.07
2023-02-17T05:59:19.872Z,5.57
2023-02-17T06:01:46.802Z,6.88
2023-02-17T06:04:13.654Z,5.90
2023-02-17T06:06:40.600Z,5.22
2023-02-17T06:09:07.553Z,5.22
2023-02-17T06:11:34.477Z,5.53
2023-02-17T06:14:01.357Z,5.60
2023-02-17T06:16:28.425Z,5.45
2023-02-17T06:18:55.350Z,5.85
2023-02-17T06:21:22.256Z,5.45
2023-02-17T06:23:49.105Z,5.82
2023-02-17T06:26:16.150Z,5.07
2023-02-17T06:28:43.019Z,5.78
2023-02-17T06:31:10.289Z,6.43
2023-02-17T06:33:37.250Z,5.97
2023-02-17T06:36:04.833Z,5.70
2023-02-17T06:38:32.001Z,6.13
2023-02-17T06:40:58.882Z,6.22
2023-02-17T06:43:25.823Z,6.75
2023-02-17T06:45:52.828Z,6.90
2023-02-17T06:48:19.785Z,6.75
2023-02-17T06:50:48.723Z,7.50
2023-02-17T06:53:15.626Z,7.05
2023-02-17T06:55:44.611Z,6.50
2023-02-17T06:58:11.684Z,6.53
2023-02-17T07:00:38.931Z,6.10
2023-02-17T07:03:05.877Z,6.53
2023-02-17T07:05:36.083Z,7.28
2023-02-17T07:08:03.815Z,7.35
2023-02-17T07:10:30.870Z,6.80
2023-02-17T07:12:57.790Z,7.65
2023-02-17T07:15:25.003Z,7.25
2023-02-17T07:17:51.939Z,7.88
2023-02-17T07:20:18.950Z,7.78
2023-02-17T07:22:45.921Z,7.90
2023-02-17T07:25:12.792Z,8.95
2023-02-17T07:27:39.896Z,9.30
2023-02-17T07:30:07.497Z,8.82
2023-02-17T07:32:35.639Z,8.50
2023-02-17T07:35:02.734Z,9.63
2023-02-17T07:37:29.770Z,9.32
2023-02-17T07:39:57.363Z,9.88
2023-02-17T07:42:24.354Z,9.50
2023-02-17T07:44:51.880Z,10.63
2023-02-17T07:47:19.181Z,10.02
2023-02-17T07:49:46.137Z,10.13
2023-02-17T07:52:13.094Z,11.13
2023-02-17T07:54:40.031Z,11.32
2023-02-17T07:57:06.888Z,11.18
2023-02-17T07:59:33.741Z,11.63
2023-02-17T08:02:00.680Z,11.15
2023-02-17T08:04:27.830Z,11.40
2023-02-17T08:06:54.820Z,11.75
2023-02-17T08:09:40.051Z,11.13
2023-02-17T08:12:34.073Z,12.10
2023-02-17T08:15:02.002Z,13.18
2023-02-17T08:17:29.591Z,13.02
2023-02-17T08:19:56.646Z,13.75
2023-02-17T08:22:23.675Z,13.05
2023-02-17T08:24:50.893Z,12.98
2023-02-17T08:27:19.760Z,14.10
2023-02-17T08:29:46.928Z,13.75
2023-02-17T08:32:16.318Z,13.73
2023-02-17T08:34:43.440Z,14.05
2023-02-17T08:37:11.068Z,12.98
2023-02-17T08:39:38.504Z,13.30
2023-02-17T08:42:06.094Z,14.07
2023-02-17T08:44:36.133Z,14.05
2023-02-17T08:47:05.213Z,13.80
2023-02-17T08:49:33.116Z,13.70
2023-02-17T08:52:00.256Z,11.77
2023-02-17T08:54:27.323Z,13.98
2023-02-17T08:56:54.322Z,13.35
2023-02-17T08:59:21.414Z,13.43
2023-02-17T09:01:48.377Z,13.77
2023-02-17T09:04:16.371Z,13.65
2023-02-17T09:06:46.419Z,13.15
2023-02-17T09:09:15.226Z,14.43
2023-02-17T09:11:42.553Z,15.02
2023-02-17T09:14:10.090Z,14.65
2023-02-17T09:16:40.333Z,14.23
2023-02-17T09:19:08.262Z,14.35
2023-02-17T09:21:35.151Z,15.18
2023-02-17T09:24:02.026Z,14.93
2023-02-17T09:26:29.058Z,14.02
2023-02-17T09:28:57.672Z,13.07
2023-02-17T09:31:26.666Z,15.07
2023-02-17T09:33:54.675Z,14.30
2023-02-17T09:36:24.635Z,15.40
2023-02-17T09:38:52.685Z,14.65
2023-02-17T09:41:38.175Z,14.75
2023-02-17T09:44:07.816Z,13.95
2023-02-17T10:18:04.460Z,19.35
2023-02-17T10:20:52.422Z,17.98
2023-02-17T10:23:22.803Z,17.77
2023-02-17T10:26:08.968Z,16.70
2023-02-17T10:28:54.584Z,17.23
2023-02-17T10:31:47.678Z,17.58
2023-02-17T10:34:23.811Z,18.13
2023-02-17T10:37:05.066Z,17.65
2023-02-17T10:39:41.989Z,17.60
2023-02-17T10:42:40.698Z,17.40
2023-02-17T10:45:26.218Z,17.00
2023-02-17T10:47:59.491Z,18.45
2023-02-17T10:50:26.772Z,17.15
2023-02-17T10:52:54.129Z,16.30
2023-02-17T10:55:33.990Z,15.65
2023-02-17T10:58:47.311Z,16.38
2023-02-17T11:01:14.484Z,17.77
2023-02-17T11:03:42.099Z,16.48
2023-02-17T11:06:22.425Z,16.75
2023-02-17T11:08:50.817Z,16.05
2023-02-17T11:11:19.776Z,16.80
2023-02-17T11:14:19.716Z,15.73
2023-02-17T11:16:53.144Z,15.65
2023-02-17T11:19:29.979Z,17.20
2023-02-17T11:21:59.156Z,16.75
2023-02-17T11:24:27.480Z,15.27
2023-02-17T11:27:08.607Z,14.02
2023-02-17T11:29:35.720Z,16.20
2023-02-17T11:32:07.520Z,14.15
2023-02-17T11:34:39.892Z,15.07
2023-02-17T11:37:09.835Z,14.63
2023-02-17T11:39:45.328Z,14.88
2023-02-17T11:42:23.697Z,14.73
2023-02-17T11:44:51.014Z,15.85
2023-02-17T11:47:33.306Z,13.15
2023-02-17T11:50:31.711Z,14.20
2023-02-17T11:53:34.665Z,14.68
2023-02-17T11:56:10.114Z,14.15
2023-02-17T11:58:43.885Z,13.30
2023-02-17T12:01:41.479Z,11.52
2023-02-17T12:06:56.140Z,11.52
2023-02-17T12:09:38.162Z,12.80
2023-02-17T12:12:14.085Z,12.63
2023-02-17T12:14:52.939Z,10.93
2023-02-17T12:17:45.990Z,12.15
2023-02-17T12:20:39.905Z,11.55
2023-02-17T12:23:24.710Z,11.88
2023-02-17T12:26:13.294Z,11.65
2023-02-17T12:28:49.239Z,12.35
2023-02-17T12:31:40.377Z,12.35
2023-02-17T12:34:18.702Z,13.43
2023-02-17T12:36:46.601Z,13.63
2023-02-17T12:39:20.617Z,12.20
2023-02-17T12:41:53.988Z,12.40
2023-02-17T12:44:27.098Z,13.52
2023-02-17T12:46:57.832Z,13.07
2023-02-17T12:49:47.546Z,12.25
2023-02-17T12:52:25.248Z,11.50
2023-02-17T12:54:57.361Z,13.15
2023-02-17T12:57:37.679Z,12.32
2023-02-17T13:00:17.872Z,11.00
2023-02-17T13:02:45.065Z,11.00
2023-02-17T13:05:26.384Z,10.95
2023-02-17T13:07:58.409Z,10.45
2023-02-17T13:10:40.161Z,10.73
2023-02-17T13:13:25.078Z,10.82
2023-02-17T13:16:28.611Z,10.95
2023-02-17T13:18:55.855Z,11.48
2023-02-17T13:21:27.550Z,10.63
2023-02-17T13:24:09.077Z,10.23
2023-02-17T13:26:37.766Z,11.60
2023-02-17T13:29:25.871Z,11.38
2023-02-17T13:31:52.912Z,11.75
2023-02-17T13:34:46.623Z,11.60
2023-02-17T13:37:37.250Z,12.30
2023-02-17T13:40:15.702Z,11.63
2023-02-17T13:42:45.373Z,12.15
2023-02-17T13:45:20.694Z,11.82
2023-02-17T13:47:50.715Z,11.90
2023-02-17T13:50:33.061Z,12.45
2023-02-17T13:53:01.596Z,12.35
2023-02-17T13:55:28.526Z,13.82
2023-02-17T13:57:58.309Z,13.07
2023-02-17T14:00:30.831Z,12.38
2023-02-17T14:03:27.108Z,12.07
2023-02-17T14:05:56.832Z,11.57
2023-02-17T14:08:29.514Z,12.98
2023-02-17T14:10:57.673Z,14.10
2023-02-17T14:13:25.289Z,12.73
2023-02-17T14:15:56.133Z,12.40
2023-02-17T14:18:38.512Z,13.68
2023-02-17T14:21:23.740Z,14.35
2023-02-17T14:23:53.811Z,13.52
2023-02-17T14:26:44.698Z,12.25
2023-02-17T14:29:13.618Z,13.95
2023-02-17T14:31:46.449Z,12.52
2023-02-17T14:34:25.723Z,13.57
2023-02-17T14:36:52.856Z,14.13
2023-02-17T14:39:19.951Z,13.70
2023-02-17T14:41:46.965Z,15.15
2023-02-17T14:44:13.806Z,14.55
2023-02-17T14:46:41.042Z,15.50
2023-02-17T14:49:08.084Z,15.30
2023-02-17T14:51:37.543Z,14.52
2023-02-17T14:54:14.184Z,14.98
2023-02-17T14:56:59.978Z,15.48
2023-02-17T14:59:26.889Z,14.80
2023-02-17T15:01:53.882Z,14.68
2023-02-17T15:04:20.954Z,17.15
2023-02-17T15:06:51.040Z,14.70
2023-02-17T15:09:24.252Z,15.85
2023-02-17T15:11:51.837Z,15.95
2023-02-17T15:14:21.045Z,15.15
2023-02-17T15:16:48.946Z,15.35
2023-02-17T15:19:19.658Z,15.90
2023-02-17T15:21:50.031Z,15.85
2023-02-17T15:24:27.281Z,16.80
2023-02-17T15:26:56.448Z,16.30
2023-02-17T15:29:25.150Z,16.55
2023-02-17T15:31:54.579Z,15.55
2023-02-17T15:34:31.028Z,17.42
2023-02-17T15:37:01.469Z,16.60
2023-02-17T15:39:29.084Z,14.75
2023-02-17T15:42:02.524Z,16.15
2023-02-17T15:44:51.310Z,15.52
2023-02-17T15:47:20.765Z,17.50
2023-02-17T15:49:47.775Z,14.85
2023-02-17T15:52:15.643Z,15.48
2023-02-17T15:54:43.393Z,16.80
2023-02-17T15:57:28.495Z,18.17
2023-02-17T15:59:55.635Z,18.38
2023-02-17T16:02:25.216Z,20.90
2023-02-17T16:04:52.189Z,20.30
2023-02-17T16:07:19.194Z,20.67
2023-02-17T16:09:46.258Z,21.13
2023-02-17T16:12:26.542Z,22.70
2023-02-17T16:14:54.829Z,17.45
2023-02-17T16:17:21.817Z,16.23
2023-02-17T16:19:48.870Z,16.20
2023-02-17T16:22:15.803Z,16.60
2023-02-17T16:24:43.054Z,16.70
2023-02-17T16:27:15.544Z,18.38
2023-02-17T16:29:43.049Z,17.10
2023-02-17T16:32:12.892Z,18.88
2023-02-17T16:34:40.441Z,18.10
2023-02-17T16:37:17.562Z,18.25
2023-02-17T16:39:45.131Z,19.20
2023-02-17T16:42:15.823Z,19.15
2023-02-17T16:44:43.132Z,18.58
2023-02-17T16:47:20.071Z,16.75
2023-02-17T16:49:48.251Z,16.70
2023-02-17T16:52:24.211Z,16.55
2023-02-17T16:54:51.358Z,16.02
2023-02-17T16:57:20.052Z,16.77
2023-02-17T16:59:47.657Z,17.00
2023-02-17T17:02:14.916Z,15.13
2023-02-17T17:04:41.850Z,20.08
2023-02-17T17:07:14.028Z,18.10
2023-02-17T17:09:41.839Z,17.83
2023-02-17T17:12:11.054Z,20.38
2023-02-17T17:14:37.943Z,20.05
2023-02-17T17:17:05.116Z,19.52
2023-02-17T17:19:32.017Z,17.73
2023-02-17T17:21:58.981Z,18.60
2023-02-17T17:24:26.272Z,19.80
2023-02-17T17:26:53.362Z,23.92
2023-02-17T17:29:20.857Z,22.65
2023-02-17T17:31:48.398Z,19.30
2023-02-17T17:34:15.467Z,18.95
2023-02-17T17:36:45.151Z,19.35
2023-02-17T17:39:18.469Z,18.70
2023-02-17T17:41:46.231Z,18.50
2023-02-17T17:44:13.269Z,19.30
2023-02-17T17:46:41.188Z,19.02
2023-02-17T17:49:10.560Z,16.30
2023-02-17T17:51:38.620Z,18.02
2023-02-17T17:54:06.844Z,16.67
2023-02-17T17:56:39.441Z,14.77
2023-02-17T17:59:06.922Z,12.07
2023-02-17T18:01:34.290Z,12.73
2023-02-17T18:04:01.675Z,12.32
2023-02-17T18:06:36.418Z,12.93
2023-02-17T18:09:07.167Z,11.60
2023-02-17T18:11:35.618Z,11.55
2023-02-17T18:14:07.666Z,10.93
2023-02-17T18:16:36.572Z,9.98
2023-02-17T18:19:06.940Z,10.65
2023-02-17T18:21:35.796Z,10.90
2023-02-17T18:24:03.643Z,9.85
2023-02-17T18:26:30.974Z,10.57
2023-02-17T18:28:59.116Z,11.30
2023-02-17T18:31:28.640Z,10.25
2023-02-17T18:33:56.378Z,8.15
2023-02-17T18:36:26.849Z,10.02
2023-02-17T18:38:53.963Z,10.20
2023-02-17T18:41:33.063Z,10.68
2023-02-17T18:44:01.923Z,10.63
2023-02-17T18:46:29.606Z,9.70
2023-02-17T18:48:57.368Z,8.73
2023-02-17T18:51:27.815Z,8.40
2023-02-17T18:53:59.859Z,9.75
2023-02-17T18:56:30.115Z,9.38
2023-02-17T18:58:57.624Z,9.60
2023-02-17T19:01:30.504Z,10.00
2023-02-17T19:03:58.131Z,10.15
2023-02-17T19:06:29.393Z,8.38
2023-02-17T19:08:56.537Z,8.50
2023-02-17T19:11:24.962Z,8.85
2023-02-17T19:13:53.203Z,9.48
2023-02-17T19:16:26.113Z,8.50
2023-02-17T19:18:53.183Z,8.43
2023-02-17T19:21:21.412Z,8.73
2023-02-17T19:23:48.804Z,9.02
2023-02-17T19:26:17.657Z,10.23
2023-02-17T19:28:45.422Z,8.57
2023-02-17T19:31:15.880Z,9.52
2023-02-17T19:33:44.455Z,9.10
2023-02-17T19:36:15.162Z,9.25
2023-02-17T19:38:42.701Z,9.50
2023-02-17T19:41:11.474Z,9.73
2023-02-17T19:43:38.813Z,10.00
2023-02-17T19:46:06.342Z,9.90
2023-02-17T19:48:36.365Z,9.70
2023-02-17T19:51:06.226Z,9.95
2023-02-17T19:53:34.272Z,9.25
2023-02-17T19:56:22.197Z,9.73
2023-02-17T19:58:50.414Z,9.27
2023-02-17T20:01:21.721Z,8.82
2023-02-17T20:03:48.823Z,8.65
2023-02-17T20:06:19.677Z,9.45
2023-02-17T20:08:46.883Z,9.20
2023-02-17T20:11:14.994Z,9.10
2023-02-17T20:13:46.090Z,8.63
2023-02-17T20:16:15.348Z,9.40
2023-02-17T20:18:45.492Z,8.90
2023-02-17T20:21:15.881Z,8.68
2023-02-17T20:23:43.327Z,8.07
2023-02-17T20:26:14.732Z,8.18
2023-02-17T20:28:41.934Z,8.75
2023-02-17T20:31:10.092Z,8.68
2023-02-17T20:33:37.589Z,8.63
2023-02-17T20:36:06.972Z,10.35
2023-02-17T20:38:34.713Z,9.57
2023-02-17T20:41:01.809Z,10.60
2023-02-17T20:43:28.889Z,10.60
2023-02-17T20:45:55.869Z,11.20
2023-02-17T20:48:27.559Z,10.63
2023-02-17T20:54:45.365Z,10.80
2023-02-17T20:57:15.791Z,11.13
2023-02-17T20:59:42.724Z,10.30
2023-02-17T21:02:11.377Z,10.13
2023-02-17T21:04:38.436Z,10.48
2023-02-17T21:07:05.581Z,11.35
2023-02-17T21:09:32.469Z,10.15
2023-02-17T21:11:59.465Z,10.50
2023-02-17T21:14:26.445Z,11.27
2023-02-17T21:16:53.547Z,11.52
2023-02-17T21:19:20.640Z,11.20
2023-02-17T21:21:50.543Z,12.60
2023-02-17T21:24:17.505Z,11.55
2023-02-17T21:26:44.495Z,10.82
2023-02-17T21:29:11.416Z,11.93
2023-02-17T21:31:38.635Z,11.60
2023-02-17T21:34:06.007Z,11.30
2023-02-17T21:36:36.110Z,11.75
2023-02-17T21:39:04.356Z,12.82
2023-02-17T21:41:32.650Z,12.05
2023-02-17T21:44:18.514Z,12.65
2023-02-17T21:46:46.593Z,10.25
2023-02-17T21:49:14.325Z,11.27
2023-02-17T21:51:41.938Z,11.27
2023-02-17T21:54:09.787Z,9.95
2023-02-17T21:56:36.889Z,11.43
2023-02-17T21:59:04.193Z,11.80
2023-02-17T22:01:31.228Z,11.35
2023-02-17T22:03:58.254Z,11.18
2023-02-17T22:06:28.451Z,11.32
2023-02-17T22:08:56.488Z,10.02
2023-02-17T22:11:26.045Z,9.13
2023-02-17T22:14:01.917Z,11.13
2023-02-17T22:16:34.379Z,10.02
2023-02-17T22:19:02.148Z,9.30
2023-02-17T22:21:29.335Z,10.65
2023-02-17T22:23:58.479Z,9.60
2023-02-17T22:26:26.371Z,10.30
2023-02-17T22:28:53.878Z,9.82
2023-02-17T22:31:26.587Z,10.55
2023-02-17T22:33:55.875Z,10.30
2023-02-17T22:36:24.481Z,9.63
2023-02-17T22:38:52.511Z,10.68
2023-02-17T22:41:21.757Z,9.98
2023-02-17T22:43:49.820Z,10.07
2023-02-17T22:46:49.157Z,10.75
2023-02-17T22:49:16.165Z,10.23
2023-02-17T22:51:43.205Z,9.52
2023-02-17T22:54:10.253Z,10.05
2023-02-17T22:56:37.704Z,9.90
2023-02-17T22:59:05.818Z,9.63
2023-02-17T23:01:35.636Z,9.05
2023-02-17T23:04:03.678Z,10.30
2023-02-17T23:06:33.558Z,10.20
2023-02-17T23:09:01.747Z,9.32
2023-02-17T23:11:50.138Z,9.35
2023-02-17T23:14:26.104Z,9.38
2023-02-17T23:16:55.425Z,10.95
2023-02-17T23:19:24.182Z,9.40
2023-02-17T23:21:54.233Z,10.07
2023-02-17T23:24:22.345Z,9.68
2023-02-17T23:26:49.659Z,9.27
2023-02-17T23:29:17.666Z,9.95
2023-02-17T23:31:44.994Z,10.02
2023-02-17T23:34:14.363Z,10.15
2023-02-17T23:36:43.279Z,9.60
2023-02-17T23:39:10.763Z,9.57
2023-02-17T23:41:39.524Z,9.98
2023-02-17T23:44:09.543Z,10.07
2023-02-17T23:46:37.294Z,9.93
2023-02-17T23:49:04.354Z,9.43
2023-02-17T23:51:31.241Z,10.10
2023-02-17T23:53:58.158Z,9.32
2023-02-17T23:56:30.709Z,9.93
2023-02-17T23:58:57.698Z,9.63
